createdAt,value
2018-06-18T00:02:13.558Z,79.60
2018-06-18T00:04:42.622Z,79.40
2018-06-18T00:07:11.956Z,80.20
2018-06-18T00:09:40.295Z,80.40
2018-06-18T00:12:08.691Z,82.00
2018-06-18T00:14:37.788Z,80.40
2018-06-18T00:17:06.215Z,81.10
2018-06-18T00:19:34.733Z,80.60
2018-06-18T00:22:03.190Z,79.60
2018-06-18T00:24:31.500Z,79.00
2018-06-18T00:26:59.825Z,79.40
2018-06-18T00:29:28.179Z,79.00
2018-06-18T00:31:56.476Z,78.70
2018-06-18T00:34:24.780Z,79.10
2018-06-18T00:36:53.088Z,79.10
2018-06-18T00:39:21.388Z,79.30
2018-06-18T00:41:49.788Z,79.60
2018-06-18T00:44:18.084Z,79.20
2018-06-18T00:46:46.400Z,79.30
2018-06-18T00:49:15.252Z,79.00
2018-06-18T00:51:44.737Z,78.80
2018-06-18T00:54:13.072Z,78.70
2018-06-18T00:56:41.371Z,79.30
2018-06-18T00:59:09.700Z,79.30
2018-06-18T01:01:38.072Z,79.30
2018-06-18T01:04:06.416Z,79.30
2018-06-18T01:06:34.724Z,79.50
2018-06-18T01:09:03.177Z,79.20
2018-06-18T01:11:31.520Z,79.00
2018-06-18T01:13:59.808Z,79.40
2018-06-18T01:16:28.129Z,79.40
2018-06-18T01:18:56.435Z,79.50
2018-06-18T01:21:24.764Z,79.30
2018-06-18T01:25:02.121Z,79.80
2018-06-18T01:27:30.434Z,80.00
2018-06-18T01:29:58.763Z,79.80
2018-06-18T01:32:27.132Z,79.90
2018-06-18T01:34:55.768Z,79.60
2018-06-18T01:37:24.087Z,80.20
2018-06-18T01:39:52.404Z,80.40
2018-06-18T01:42:20.746Z,80.30
2018-06-18T01:44:49.032Z,80.00
2018-06-18T01:47:17.333Z,80.10
2018-06-18T01:49:45.644Z,80.10
2018-06-18T01:52:13.968Z,79.70
2018-06-18T01:54:42.264Z,80.20
2018-06-18T01:57:10.589Z,79.80
2018-06-18T01:59:38.889Z,80.10
2018-06-18T02:02:07.215Z,80.30
2018-06-18T02:04:35.525Z,80.30
2018-06-18T02:07:03.860Z,80.30
2018-06-18T02:09:32.167Z,80.00
2018-06-18T02:12:00.491Z,79.90
2018-06-18T02:14:28.808Z,79.90
2018-06-18T02:16:57.152Z,79.80
2018-06-18T02:19:25.448Z,79.50
2018-06-18T02:21:53.780Z,79.40
2018-06-18T02:24:22.077Z,79.30
2018-06-18T02:26:54.620Z,79.10
2018-06-18T02:31:31.268Z,79.60
2018-06-18T02:34:04.844Z,79.70
2018-06-18T02:36:38.551Z,79.50
2018-06-18T02:39:11.489Z,79.80
2018-06-18T02:41:40.305Z,79.10
2018-06-18T02:44:08.671Z,78.70
2018-06-18T02:46:36.985Z,79.40
2018-06-18T02:49:05.401Z,78.60
2018-06-18T02:51:33.728Z,79.00
2018-06-18T02:54:02.041Z,79.40
2018-06-18T02:56:51.451Z,79.10
2018-06-18T02:59:19.831Z,79.00
2018-06-18T03:01:48.335Z,79.50
2018-06-18T03:04:16.636Z,79.80
2018-06-18T03:06:44.944Z,79.70
2018-06-18T03:09:13.257Z,79.50
2018-06-18T03:11:41.675Z,79.10
2018-06-18T03:14:10.892Z,79.10
2018-06-18T03:16:39.220Z,78.50
2018-06-18T03:19:13.411Z,79.00
2018-06-18T03:21:47.043Z,79.10
2018-06-18T03:26:21.572Z,79.40
2018-06-18T03:28:55.131Z,79.80
2018-06-18T03:31:23.432Z,79.30
2018-06-18T03:33:51.780Z,79.60
2018-06-18T03:36:20.089Z,79.90
2018-06-18T03:38:48.410Z,79.50
2018-06-18T03:41:17.292Z,79.30
2018-06-18T03:43:49.972Z,79.40
2018-06-18T03:46:18.344Z,79.30
2018-06-18T03:48:47.275Z,79.30
2018-06-18T03:51:15.580Z,79.00
2018-06-18T03:53:43.900Z,79.10
2018-06-18T03:56:12.890Z,78.70
2018-06-18T03:58:41.178Z,79.00
2018-06-18T04:01:34.741Z,78.70
2018-06-18T04:04:09.788Z,78.80
2018-06-18T04:06:43.441Z,79.00
2018-06-18T04:09:17.103Z,79.00
2018-06-18T04:11:50.752Z,79.60
2018-06-18T04:14:19.124Z,79.00
2018-06-18T04:16:47.492Z,78.90
2018-06-18T04:19:15.808Z,78.90
2018-06-18T04:21:44.115Z,79.30
2018-06-18T04:24:12.484Z,79.00
2018-06-18T04:26:40.984Z,79.20
2018-06-18T04:29:09.296Z,78.50
2018-06-18T04:31:37.593Z,78.50
2018-06-18T04:34:15.798Z,78.20
2018-06-18T04:36:44.104Z,79.00
2018-06-18T04:39:13.060Z,78.90
2018-06-18T04:41:46.589Z,78.70
2018-06-18T04:44:20.167Z,79.00
2018-06-18T04:46:53.825Z,79.10
2018-06-18T04:49:27.380Z,79.50
2018-06-18T04:51:56.032Z,79.50
2018-06-18T04:54:24.331Z,79.80
2018-06-18T04:56:52.671Z,79.80
2018-06-18T04:59:20.976Z,79.60
2018-06-18T05:01:49.292Z,78.50
2018-06-18T05:04:17.600Z,79.00
2018-06-18T05:06:45.913Z,79.50
2018-06-18T05:11:24.347Z,80.00
2018-06-18T05:13:53.044Z,79.60
2018-06-18T05:16:21.347Z,79.10
2018-06-18T05:18:49.656Z,79.30
2018-06-18T05:21:18.076Z,78.90
2018-06-18T05:23:47.008Z,78.90
2018-06-18T05:26:15.456Z,78.90
2018-06-18T05:28:43.752Z,79.00
2018-06-18T05:31:12.116Z,78.40
2018-06-18T05:33:40.428Z,78.20
2018-06-18T05:36:08.733Z,78.20
2018-06-18T05:38:37.036Z,78.20
2018-06-18T05:41:05.377Z,77.40
2018-06-18T05:43:33.735Z,77.10
2018-06-18T05:46:01.988Z,77.40
2018-06-18T05:48:30.286Z,77.40
2018-06-18T05:50:58.613Z,77.10
2018-06-18T05:53:26.928Z,77.60
2018-06-18T05:55:55.266Z,77.70
2018-06-18T05:58:23.710Z,77.80
2018-06-18T06:00:52.220Z,77.80
2018-06-18T06:03:20.603Z,77.90
2018-06-18T06:05:48.933Z,77.40
2018-06-18T06:08:17.963Z,77.10
2018-06-18T06:10:46.288Z,76.20
2018-06-18T06:13:14.596Z,76.50
2018-06-18T06:15:42.916Z,76.70
2018-06-18T06:18:11.228Z,76.50
2018-06-18T06:20:44.395Z,75.60
2018-06-18T06:23:12.748Z,75.50
2018-06-18T06:25:41.064Z,75.40
2018-06-18T06:28:09.460Z,76.00
2018-06-18T06:30:37.836Z,75.40
2018-06-18T06:33:06.192Z,74.90
2018-06-18T06:35:37.853Z,74.90
2018-06-18T06:38:06.172Z,74.80
2018-06-18T06:40:34.584Z,75.20
2018-06-18T06:43:02.896Z,74.90
2018-06-18T06:45:31.216Z,74.10
2018-06-18T06:47:59.541Z,74.40
2018-06-18T06:50:27.855Z,74.50
2018-06-18T06:52:56.147Z,74.10
2018-06-18T06:55:24.451Z,74.30
2018-06-18T06:57:52.752Z,74.50
2018-06-18T07:00:21.068Z,74.70
2018-06-18T07:02:49.356Z,74.60
2018-06-18T07:05:17.656Z,73.80
2018-06-18T07:07:46.136Z,73.80
2018-06-18T07:10:14.472Z,73.90
2018-06-18T07:12:42.843Z,73.70
2018-06-18T07:15:12.156Z,74.30
2018-06-18T07:17:41.032Z,73.50
2018-06-18T07:20:09.402Z,73.70
2018-06-18T07:22:37.750Z,73.40
2018-06-18T07:25:06.248Z,73.20
2018-06-18T07:27:34.681Z,74.10
2018-06-18T07:30:03.104Z,73.40
2018-06-18T07:32:31.413Z,72.50
2018-06-18T07:34:59.724Z,72.60
2018-06-18T07:37:28.641Z,72.10
2018-06-18T07:39:56.963Z,72.60
2018-06-18T07:42:25.274Z,73.70
2018-06-18T07:44:53.655Z,73.10
2018-06-18T07:47:21.995Z,73.40
2018-06-18T07:49:50.292Z,74.00
2018-06-18T07:52:18.591Z,74.00
2018-06-18T07:54:46.878Z,74.30
2018-06-18T07:57:15.219Z,75.00
2018-06-18T07:59:43.504Z,75.00
2018-06-18T08:02:12.185Z,74.20
2018-06-18T08:04:40.510Z,74.70
2018-06-18T08:07:09.086Z,73.50
2018-06-18T08:09:37.385Z,72.60
2018-06-18T08:12:05.756Z,70.90
2018-06-18T08:14:34.052Z,73.60
2018-06-18T08:17:02.367Z,72.30
2018-06-18T08:19:30.736Z,73.00
2018-06-18T08:21:59.076Z,73.10
2018-06-18T08:24:27.435Z,71.90
2018-06-18T08:26:55.813Z,71.90
2018-06-18T08:29:24.074Z,72.80
2018-06-18T08:31:52.378Z,70.40
2018-06-18T08:34:20.684Z,71.10
2018-06-18T08:36:49.001Z,71.60
2018-06-18T08:39:17.302Z,72.00
2018-06-18T08:41:45.616Z,72.00
2018-06-18T08:44:13.920Z,69.70
2018-06-18T08:46:42.220Z,69.30
2018-06-18T08:49:10.526Z,70.00
2018-06-18T08:53:47.164Z,69.30
2018-06-18T08:56:20.825Z,70.30
2018-06-18T08:58:54.483Z,70.00
2018-06-18T09:01:28.169Z,70.80
2018-06-18T09:04:01.892Z,69.30
2018-06-18T09:06:30.236Z,72.10
2018-06-18T09:08:58.917Z,70.10
2018-06-18T09:11:27.572Z,70.40
2018-06-18T09:13:56.063Z,68.90
2018-06-18T09:16:24.408Z,69.70
2018-06-18T09:18:52.764Z,69.80
2018-06-18T09:21:21.454Z,68.80
2018-06-18T09:23:49.749Z,68.50
2018-06-18T09:26:18.299Z,70.20
2018-06-18T09:28:46.603Z,69.10
2018-06-18T09:31:15.413Z,68.20
2018-06-18T09:33:44.427Z,69.70
2018-06-18T09:36:13.103Z,70.10
2018-06-18T09:38:41.415Z,66.90
2018-06-18T09:41:11.459Z,66.20
2018-06-18T09:43:39.842Z,66.30
2018-06-18T09:46:08.148Z,67.40
2018-06-18T09:48:41.656Z,67.80
2018-06-18T09:51:15.311Z,66.20
2018-06-18T09:53:49.000Z,66.10
2018-06-18T09:56:22.545Z,65.20
2018-06-18T09:58:56.104Z,64.70
2018-06-18T10:01:30.348Z,65.00
2018-06-18T10:03:59.174Z,65.70
2018-06-18T10:06:28.289Z,64.00
2018-06-18T10:09:01.164Z,64.20
2018-06-18T10:11:29.488Z,65.20
2018-06-18T10:13:57.793Z,64.30
2018-06-18T10:16:26.081Z,62.70
2018-06-18T10:18:54.720Z,64.70
2018-06-18T10:21:23.020Z,62.60
2018-06-18T10:23:51.417Z,62.50
2018-06-18T10:26:19.709Z,62.70
2018-06-18T10:28:48.019Z,60.50
2018-06-18T10:31:16.522Z,62.20
2018-06-18T10:33:50.080Z,61.50
2018-06-18T10:36:23.708Z,63.50
2018-06-18T10:38:57.244Z,61.50
2018-06-18T10:41:30.989Z,61.90
2018-06-18T10:43:59.240Z,64.80
2018-06-18T10:46:27.545Z,64.60
2018-06-18T10:48:55.847Z,65.40
2018-06-18T10:51:24.164Z,63.60
2018-06-18T10:53:52.469Z,65.20
2018-06-18T10:56:20.780Z,65.70
2018-06-18T10:58:49.096Z,65.20
2018-06-18T11:01:22.036Z,63.30
2018-06-18T11:03:51.191Z,64.40
2018-06-18T11:06:24.720Z,67.20
2018-06-18T11:08:53.047Z,66.10
2018-06-18T11:11:21.344Z,68.00
2018-06-18T11:13:49.669Z,66.40
2018-06-18T11:16:18.090Z,66.50
2018-06-18T11:18:51.536Z,68.20
2018-06-18T11:21:25.108Z,67.10
2018-06-18T11:23:58.664Z,67.60
2018-06-18T11:26:32.411Z,67.30
2018-06-18T11:29:00.652Z,66.90
2018-06-18T11:31:29.717Z,68.40
2018-06-18T11:33:58.080Z,68.40
2018-06-18T11:36:26.394Z,68.50
2018-06-18T11:38:54.703Z,68.70
2018-06-18T11:41:23.643Z,69.80
2018-06-18T11:43:51.940Z,69.60
2018-06-18T11:46:20.231Z,70.00
2018-06-18T11:48:48.542Z,71.10
2018-06-18T11:51:16.859Z,70.10
2018-06-18T11:53:45.200Z,68.00
2018-06-18T11:56:13.494Z,67.00
2018-06-18T11:58:47.456Z,67.40
2018-06-18T12:01:21.172Z,66.80
2018-06-18T12:03:54.771Z,67.80
2018-06-18T12:08:35.904Z,68.60
2018-06-18T12:11:04.247Z,68.40
2018-06-18T12:13:32.544Z,70.50
2018-06-18T12:16:00.860Z,71.10
2018-06-18T12:18:29.152Z,70.80
2018-06-18T12:20:57.536Z,70.60
2018-06-18T12:23:25.828Z,72.50
2018-06-18T12:25:54.144Z,71.70
2018-06-18T12:28:22.439Z,71.10
2018-06-18T12:30:50.739Z,70.70
2018-06-18T12:33:19.091Z,70.00
2018-06-18T12:35:47.401Z,68.70
2018-06-18T12:38:15.800Z,68.40
2018-06-18T12:40:44.112Z,68.20
2018-06-18T12:43:13.354Z,69.40
2018-06-18T12:45:47.101Z,67.80
2018-06-18T12:48:20.636Z,67.70
2018-06-18T12:50:54.277Z,69.70
2018-06-18T12:53:28.129Z,71.30
2018-06-18T12:56:01.596Z,71.20
2018-06-18T12:58:29.880Z,67.80
2018-06-18T13:00:58.193Z,70.20
2018-06-18T13:03:26.516Z,70.60
2018-06-18T13:05:55.107Z,70.10
2018-06-18T13:08:23.404Z,68.70
2018-06-18T13:10:51.744Z,68.30
2018-06-18T13:13:20.132Z,69.00
2018-06-18T13:15:48.439Z,71.50
2018-06-18T13:18:16.751Z,71.00
2018-06-18T13:20:45.052Z,70.60
2018-06-18T13:23:13.368Z,70.30
2018-06-18T13:25:41.660Z,71.80
2018-06-18T13:28:15.024Z,71.90
2018-06-18T13:30:43.372Z,72.10
2018-06-18T13:33:11.972Z,71.90
2018-06-18T13:35:40.280Z,73.00
2018-06-18T13:38:13.817Z,73.90
2018-06-18T13:40:47.416Z,74.30
2018-06-18T13:43:21.080Z,74.60
2018-06-18T13:45:54.744Z,74.30
2018-06-18T13:48:28.376Z,73.40
2018-06-18T13:50:57.503Z,74.70
2018-06-18T13:53:26.453Z,74.90
2018-06-18T13:55:54.736Z,74.90
2018-06-18T13:58:23.041Z,76.70
2018-06-18T14:00:51.611Z,76.70
2018-06-18T14:03:20.931Z,75.70
2018-06-18T14:05:49.257Z,75.60
2018-06-18T14:08:17.545Z,74.60
2018-06-18T14:10:45.968Z,74.60
2018-06-18T14:13:14.230Z,74.40
2018-06-18T14:15:42.520Z,73.80
2018-06-18T14:18:10.820Z,72.80
2018-06-18T14:20:39.100Z,73.70
2018-06-18T14:23:07.415Z,71.50
2018-06-18T14:25:36.717Z,72.20
2018-06-18T14:28:05.096Z,72.30
2018-06-18T14:30:38.661Z,73.00
2018-06-18T14:33:12.328Z,73.80
2018-06-18T14:35:45.974Z,73.00
2018-06-18T14:38:19.545Z,71.20
2018-06-18T14:40:47.866Z,71.00
2018-06-18T14:43:16.278Z,70.10
2018-06-18T14:45:44.759Z,71.80
2018-06-18T14:48:13.089Z,71.20
2018-06-18T14:50:41.544Z,71.30
2018-06-18T14:53:09.863Z,68.80
2018-06-18T14:55:38.164Z,70.00
2018-06-18T14:58:06.498Z,71.50
2018-06-18T15:03:03.172Z,72.50
2018-06-18T15:05:37.588Z,71.80
2018-06-18T15:08:05.940Z,72.50
2018-06-18T15:13:10.057Z,72.80
2018-06-18T15:15:43.716Z,74.10
2018-06-18T15:18:11.956Z,73.30
2018-06-18T15:20:40.445Z,71.20
2018-06-18T15:23:09.336Z,71.10
2018-06-18T15:25:42.633Z,70.30
2018-06-18T15:28:11.716Z,70.30
2018-06-18T15:30:40.026Z,71.40
2018-06-18T15:33:08.324Z,71.50
2018-06-18T15:35:36.642Z,71.60
2018-06-18T15:38:04.976Z,72.10
2018-06-18T15:40:33.400Z,73.00
2018-06-18T15:43:01.731Z,73.60
2018-06-18T15:45:30.064Z,73.20
2018-06-18T15:47:58.369Z,72.70
2018-06-18T15:50:26.698Z,72.60
2018-06-18T15:52:54.961Z,72.20
2018-06-18T15:55:23.964Z,71.10
2018-06-18T15:57:52.260Z,71.80
2018-06-18T16:00:20.568Z,71.30
2018-06-18T16:02:48.871Z,71.30
2018-06-18T16:05:17.170Z,69.50
2018-06-18T16:07:45.526Z,70.80
2018-06-18T16:10:13.853Z,68.50
2018-06-18T16:12:42.172Z,68.50
2018-06-18T16:15:10.484Z,66.50
2018-06-18T16:17:38.795Z,68.00
2018-06-18T16:20:07.092Z,67.90
2018-06-18T16:22:36.251Z,69.80
2018-06-18T16:25:05.066Z,70.80
2018-06-18T16:27:33.347Z,69.30
2018-06-18T16:30:01.663Z,70.70
2018-06-18T16:32:30.078Z,69.70
2018-06-18T16:34:58.376Z,70.80
2018-06-18T16:37:26.684Z,71.20
2018-06-18T16:39:55.062Z,71.90
2018-06-18T16:42:23.375Z,71.70
2018-06-18T16:44:51.716Z,71.20
2018-06-18T16:47:20.056Z,70.40
2018-06-18T16:49:48.581Z,70.40
2018-06-18T16:52:16.903Z,70.60
2018-06-18T16:54:45.252Z,68.30
2018-06-18T16:57:13.572Z,67.70
2018-06-18T16:59:41.866Z,69.50
2018-06-18T17:02:10.216Z,69.90
2018-06-18T17:04:38.527Z,69.00
2018-06-18T17:07:06.827Z,68.90
2018-06-18T17:09:35.345Z,69.30
2018-06-18T17:12:04.216Z,70.30
2018-06-18T17:14:32.584Z,70.10
2018-06-18T17:17:00.884Z,70.30
2018-06-18T17:19:29.184Z,69.80
2018-06-18T17:21:57.544Z,72.40
2018-06-18T17:24:25.864Z,72.30
2018-06-18T17:26:54.576Z,72.90
2018-06-18T17:29:22.875Z,73.30
2018-06-18T17:31:51.255Z,72.00
2018-06-18T17:34:19.492Z,68.90
2018-06-18T17:36:47.788Z,66.90
2018-06-18T17:39:16.109Z,64.40
2018-06-18T17:41:44.400Z,61.70
2018-06-18T17:44:12.707Z,62.70
2018-06-18T17:46:41.875Z,63.30
2018-06-18T17:49:10.196Z,64.00
2018-06-18T17:51:38.481Z,64.10
2018-06-18T17:54:06.805Z,63.90
2018-06-18T17:56:35.113Z,61.80
2018-06-18T17:59:03.452Z,62.70
2018-06-18T18:01:31.868Z,64.20
2018-06-18T18:04:00.172Z,65.60
2018-06-18T18:06:28.474Z,64.20
2018-06-18T18:08:56.768Z,65.30
2018-06-18T18:11:25.076Z,67.70
2018-06-18T18:13:53.556Z,69.50
2018-06-18T18:16:21.837Z,70.90
2018-06-18T18:18:50.135Z,71.20
2018-06-18T18:21:18.435Z,72.20
2018-06-18T18:23:47.091Z,72.90
2018-06-18T18:26:15.394Z,73.90
2018-06-18T18:28:43.743Z,74.50
2018-06-18T18:31:12.440Z,74.90
2018-06-18T18:33:40.982Z,75.20
2018-06-18T18:36:09.304Z,75.20
2018-06-18T18:38:38.924Z,74.80
2018-06-18T18:41:07.594Z,75.00
2018-06-18T18:43:35.912Z,74.80
2018-06-18T18:46:04.473Z,73.80
2018-06-18T18:48:33.292Z,74.40
2018-06-18T18:51:02.037Z,74.90
2018-06-18T18:53:30.444Z,74.00
2018-06-18T18:56:10.139Z,74.30
2018-06-18T18:59:42.266Z,75.10
2018-06-18T19:02:10.589Z,74.70
2018-06-18T19:04:51.932Z,75.50
2018-06-18T19:07:23.640Z,75.70
2018-06-18T19:09:55.420Z,75.80
2018-06-18T19:12:23.740Z,75.50
2018-06-18T19:14:52.051Z,76.10
2018-06-18T19:17:20.397Z,75.70
2018-06-18T19:19:55.932Z,76.90
2018-06-18T19:22:24.244Z,77.60
2018-06-18T19:24:53.198Z,78.40
2018-06-18T19:27:21.839Z,78.30
2018-06-18T19:29:50.152Z,78.50
2018-06-18T19:32:18.448Z,78.80
2018-06-18T19:34:46.756Z,78.80
2018-06-18T19:37:15.091Z,78.90
2018-06-18T19:39:45.240Z,78.90
2018-06-18T19:42:14.064Z,79.90
2018-06-18T19:44:42.650Z,78.90
2018-06-18T19:47:16.823Z,79.30
2018-06-18T19:49:45.127Z,79.90
2018-06-18T19:52:13.424Z,80.30
2018-06-18T19:54:46.676Z,80.90
2018-06-18T19:57:14.985Z,81.20
2018-06-18T19:59:43.284Z,81.40
2018-06-18T20:02:11.592Z,82.60
2018-06-18T20:04:39.907Z,81.80
2018-06-18T20:07:08.249Z,81.80
2018-06-18T20:09:36.508Z,82.20
2018-06-18T20:12:04.852Z,82.80
2018-06-18T20:14:33.201Z,83.40
2018-06-18T20:17:01.524Z,83.10
2018-06-18T20:19:30.068Z,83.40
2018-06-18T20:21:58.524Z,83.60
2018-06-18T20:24:26.852Z,83.40
2018-06-18T20:26:55.156Z,83.00
2018-06-18T20:29:23.456Z,82.80
2018-06-18T20:31:51.913Z,82.80
2018-06-18T20:34:20.212Z,82.90
2018-06-18T20:36:48.531Z,82.60
2018-06-18T20:39:16.828Z,81.90
2018-06-18T20:41:45.205Z,82.00
2018-06-18T20:44:18.910Z,82.30
2018-06-18T20:46:47.239Z,83.30
2018-06-18T20:49:15.673Z,82.10
2018-06-18T20:51:44.440Z,82.00
2018-06-18T20:54:13.188Z,82.20
2018-06-18T20:56:41.673Z,82.50
2018-06-18T20:59:11.420Z,82.40
2018-06-18T21:01:39.780Z,81.80
2018-06-18T21:04:08.387Z,82.10
2018-06-18T21:06:36.784Z,81.10
2018-06-18T21:09:08.020Z,81.20
2018-06-18T21:11:36.442Z,81.00
2018-06-18T21:14:05.199Z,80.70
2018-06-18T21:16:33.500Z,80.90
2018-06-18T21:19:01.881Z,81.30
2018-06-18T21:21:30.148Z,81.30
2018-06-18T21:23:58.495Z,81.30
2018-06-18T21:26:26.859Z,81.30
2018-06-18T21:28:55.202Z,82.20
2018-06-18T21:31:23.664Z,82.40
2018-06-18T21:33:51.982Z,82.50
2018-06-18T21:36:20.311Z,82.70
2018-06-18T21:38:48.632Z,82.80
2018-06-18T21:41:16.936Z,82.50
2018-06-18T21:43:45.283Z,82.20
2018-06-18T21:46:13.607Z,82.60
2018-06-18T21:48:41.900Z,82.60
2018-06-18T21:51:10.280Z,82.30
2018-06-18T21:53:38.556Z,82.60
2018-06-18T21:56:06.872Z,82.30
2018-06-18T21:58:35.260Z,82.00
2018-06-18T22:01:03.636Z,82.30
2018-06-18T22:03:32.021Z,81.70
2018-06-18T22:06:00.371Z,81.60
2018-06-18T22:08:29.877Z,81.50
2018-06-18T22:10:58.223Z,81.20
2018-06-18T22:13:26.684Z,81.30
2018-06-18T22:15:55.028Z,81.20
2018-06-18T22:18:23.520Z,81.50
2018-06-18T22:20:51.919Z,81.70
2018-06-18T22:23:20.256Z,81.90
2018-06-18T22:25:48.610Z,81.80
2018-06-18T22:28:24.749Z,81.70
2018-06-18T22:30:53.077Z,82.40
2018-06-18T22:33:21.419Z,82.40
2018-06-18T22:35:49.949Z,82.30
2018-06-18T22:38:18.281Z,82.60
2018-06-18T22:40:46.572Z,82.60
2018-06-18T22:43:14.880Z,82.80
2018-06-18T22:45:43.203Z,83.10
2018-06-18T22:48:11.609Z,83.30
2018-06-18T22:50:39.918Z,83.50
2018-06-18T22:53:08.253Z,83.80
2018-06-18T22:55:36.568Z,83.80
2018-06-18T22:58:04.907Z,84.20
2018-06-18T23:00:33.252Z,84.60
2018-06-18T23:03:01.548Z,84.80
2018-06-18T23:05:29.856Z,85.00
2018-06-18T23:07:58.161Z,84.90
2018-06-18T23:10:26.524Z,84.40
2018-06-18T23:12:54.880Z,84.70
2018-06-18T23:15:23.172Z,84.70
2018-06-18T23:17:51.515Z,84.60
2018-06-18T23:20:19.820Z,84.70
2018-06-18T23:22:48.142Z,84.80
2018-06-18T23:25:16.449Z,85.10
2018-06-18T23:27:45.156Z,85.60
2018-06-18T23:30:13.473Z,85.60
2018-06-18T23:32:41.780Z,85.00
2018-06-18T23:35:10.083Z,85.10
2018-06-18T23:37:38.395Z,85.30
2018-06-18T23:40:06.735Z,84.90
2018-06-18T23:42:35.105Z,85.40
2018-06-18T23:45:04.019Z,85.00
2018-06-18T23:47:32.334Z,85.80
2018-06-18T23:50:00.633Z,86.30
2018-06-18T23:52:28.983Z,86.00
2018-06-18T23:54:57.292Z,86.70
2018-06-18T23:57:25.636Z,86.60
2018-06-18T23:59:53.960Z,86.10
